createdAt,value
2022-12-03T00:03:18.378Z,1.62
2022-12-03T00:08:21.850Z,1.54
2022-12-03T00:13:25.418Z,1.54
2022-12-03T00:18:30.244Z,1.57
2022-12-03T00:23:37.185Z,1.53
2022-12-03T00:28:45.185Z,1.56
2022-12-03T00:33:51.411Z,1.50
2022-12-03T00:38:54.746Z,1.51
2022-12-03T00:43:58.332Z,1.53
2022-12-03T00:49:03.148Z,1.51
2022-12-03T00:54:06.521Z,1.53
2022-12-03T00:59:10.789Z,1.49
2022-12-03T01:04:15.771Z,1.49
2022-12-03T01:09:19.193Z,1.55
2022-12-03T01:14:22.590Z,1.57
2022-12-03T01:19:27.429Z,1.48
2022-12-03T01:24:32.231Z,1.47
2022-12-03T01:29:36.022Z,1.54
2022-12-03T01:34:40.847Z,1.57
2022-12-03T01:39:44.484Z,1.42
2022-12-03T01:44:48.001Z,1.49
2022-12-03T01:49:56.404Z,1.54
2022-12-03T01:55:02.030Z,1.60
2022-12-03T02:00:08.475Z,1.55
2022-12-03T02:05:20.505Z,1.56
2022-12-03T02:10:27.115Z,1.62
2022-12-03T02:15:30.590Z,1.68
2022-12-03T02:20:43.805Z,1.65
2022-12-03T02:25:48.546Z,1.54
2022-12-03T02:30:51.961Z,1.55
2022-12-03T02:36:00.437Z,1.54
2022-12-03T02:41:10.722Z,1.60
2022-12-03T02:46:14.153Z,1.61
2022-12-03T02:51:17.694Z,1.57
2022-12-03T02:56:26.750Z,1.59
2022-12-03T03:01:30.237Z,1.57
2022-12-03T03:06:34.095Z,1.52
2022-12-03T03:11:38.978Z,1.54
2022-12-03T03:16:42.475Z,1.49
2022-12-03T03:21:45.904Z,1.53
2022-12-03T03:26:51.613Z,1.38
2022-12-03T03:31:55.321Z,1.37
2022-12-03T03:36:58.751Z,1.40
2022-12-03T03:42:04.157Z,1.42
2022-12-03T03:47:23.823Z,1.34
2022-12-03T03:52:27.399Z,1.35
2022-12-03T03:57:32.164Z,1.40
2022-12-03T04:02:36.118Z,1.29
2022-12-03T04:07:39.531Z,1.23
2022-12-03T04:12:59.402Z,1.27
2022-12-03T04:18:20.099Z,1.21
2022-12-03T04:23:29.304Z,1.24
2022-12-03T04:28:50.600Z,1.39
2022-12-03T04:34:11.296Z,1.27
2022-12-03T04:39:14.785Z,1.36
2022-12-03T04:44:36.298Z,1.44
2022-12-03T04:49:42.876Z,1.49
2022-12-03T04:54:46.522Z,1.39
2022-12-03T04:59:51.253Z,1.41
2022-12-03T05:04:54.949Z,1.41
2022-12-03T05:09:58.483Z,1.36
2022-12-03T05:15:03.542Z,1.39
2022-12-03T05:20:26.125Z,1.33
2022-12-03T05:25:29.615Z,1.40
2022-12-03T05:30:35.085Z,1.43
2022-12-03T05:35:38.461Z,1.40
2022-12-03T05:40:41.940Z,1.52
2022-12-03T05:45:46.889Z,1.54
2022-12-03T05:50:50.299Z,1.79
2022-12-03T05:55:53.701Z,1.75
2022-12-03T06:00:58.529Z,1.61
2022-12-03T06:06:01.928Z,1.58
2022-12-03T06:11:05.376Z,1.59
2022-12-03T06:16:10.372Z,1.62
2022-12-03T06:21:13.846Z,1.57
2022-12-03T06:26:17.766Z,1.77
2022-12-03T06:31:23.258Z,1.72
2022-12-03T06:36:27.881Z,1.75
2022-12-03T06:41:31.279Z,1.87
2022-12-03T06:46:36.127Z,1.88
2022-12-03T06:51:39.837Z,1.86
2022-12-03T06:56:45.442Z,1.79
2022-12-03T07:01:50.551Z,1.83
2022-12-03T07:06:54.017Z,1.86
2022-12-03T07:11:57.669Z,1.80
2022-12-03T07:17:02.466Z,1.81
2022-12-03T07:22:06.044Z,1.94
2022-12-03T07:27:09.450Z,1.87
2022-12-03T07:32:14.328Z,1.97
2022-12-03T07:37:22.870Z,1.90
2022-12-03T07:42:26.917Z,2.06
2022-12-03T07:47:31.769Z,2.07
2022-12-03T07:52:35.281Z,2.04
2022-12-03T07:57:38.908Z,2.16
2022-12-03T08:02:43.680Z,2.14
2022-12-03T08:07:47.158Z,2.20
2022-12-03T08:12:50.547Z,2.19
2022-12-03T08:17:58.787Z,2.25
2022-12-03T08:23:07.959Z,2.18
2022-12-03T08:28:16.929Z,2.32
2022-12-03T08:33:29.021Z,2.49
2022-12-03T08:38:32.541Z,2.21
2022-12-03T08:43:42.090Z,2.28
2022-12-03T08:48:49.488Z,2.29
2022-12-03T08:54:01.091Z,2.56
2022-12-03T08:59:24.162Z,2.52
2022-12-03T09:04:44.711Z,2.44
2022-12-03T09:09:48.338Z,2.35
2022-12-03T09:14:52.100Z,2.29
2022-12-03T09:19:57.142Z,2.51
2022-12-03T09:25:00.526Z,2.52
2022-12-03T09:30:04.072Z,2.29
2022-12-03T09:35:10.488Z,2.38
2022-12-03T09:40:14.981Z,2.44
2022-12-03T09:45:18.801Z,2.30
2022-12-03T09:50:26.561Z,2.35
2022-12-03T09:55:30.404Z,2.34
2022-12-03T10:00:33.810Z,2.22
2022-12-03T10:05:41.475Z,2.32
2022-12-03T10:10:47.202Z,2.48
2022-12-03T10:15:50.542Z,2.45
2022-12-03T10:20:55.873Z,2.72
2022-12-03T10:26:03.001Z,2.87
2022-12-03T10:31:08.526Z,2.85
2022-12-03T10:36:23.338Z,2.78
2022-12-03T10:41:28.730Z,2.49
2022-12-03T10:46:32.159Z,2.42
2022-12-03T10:51:38.487Z,2.43
2022-12-03T10:56:42.336Z,2.62
2022-12-03T11:01:46.804Z,2.77
2022-12-03T11:06:52.291Z,2.58
2022-12-03T11:11:56.072Z,2.73
2022-12-03T11:17:09.477Z,2.73
2022-12-03T11:22:41.097Z,2.85
2022-12-03T11:27:45.162Z,3.05
2022-12-03T11:33:22.888Z,3.03
2022-12-03T11:38:57.028Z,3.18
2022-12-03T11:44:31.820Z,3.11
2022-12-03T11:49:46.722Z,3.09
2022-12-03T11:54:53.814Z,3.29
2022-12-03T12:00:04.435Z,3.46
2022-12-03T12:05:33.666Z,3.35
2022-12-03T12:10:47.703Z,3.39
2022-12-03T12:15:51.173Z,3.23
2022-12-03T12:20:54.528Z,3.34
2022-12-03T12:26:08.493Z,3.57
2022-12-03T12:31:12.488Z,3.49
2022-12-03T12:36:16.244Z,3.33
2022-12-03T12:41:21.018Z,3.35
2022-12-03T12:46:47.196Z,3.53
2022-12-03T12:51:50.664Z,3.26
2022-12-03T12:56:55.752Z,3.15
2022-12-03T13:01:59.584Z,3.30
2022-12-03T13:07:03.057Z,3.09
2022-12-03T13:12:22.660Z,3.12
2022-12-03T13:17:26.852Z,2.95
2022-12-03T13:22:30.632Z,2.86
2022-12-03T13:27:35.449Z,2.68
2022-12-03T13:32:39.551Z,2.69
2022-12-03T13:37:43.169Z,2.92
2022-12-03T13:42:48.679Z,2.76
2022-12-03T13:47:56.803Z,2.52
2022-12-03T13:53:01.472Z,2.63
2022-12-03T13:58:06.314Z,2.68
2022-12-03T14:03:09.953Z,2.71
2022-12-03T14:08:13.387Z,2.70
2022-12-03T14:13:18.290Z,2.60
2022-12-03T14:18:21.689Z,2.41
2022-12-03T14:23:25.165Z,2.24
2022-12-03T14:28:29.999Z,2.31
2022-12-03T14:33:33.376Z,2.20
2022-12-03T14:38:36.808Z,2.26
2022-12-03T14:43:41.535Z,2.23
2022-12-03T14:48:44.929Z,2.33
2022-12-03T14:53:48.399Z,2.22
2022-12-03T14:58:53.178Z,2.23
2022-12-03T15:03:56.600Z,2.26
2022-12-03T15:09:00.064Z,2.25
2022-12-03T15:14:04.908Z,2.17
2022-12-03T15:19:08.359Z,2.18
2022-12-03T15:24:11.773Z,2.08
2022-12-03T15:29:16.653Z,2.11
2022-12-03T15:34:22.873Z,2.09
2022-12-03T15:39:26.738Z,2.05
2022-12-03T15:44:31.521Z,2.08
2022-12-03T15:49:34.922Z,2.06
2022-12-03T15:54:38.294Z,2.02
2022-12-03T15:59:43.229Z,2.07
2022-12-03T16:04:46.649Z,2.05
2022-12-03T16:09:50.551Z,2.05
2022-12-03T16:14:55.806Z,1.99
2022-12-03T16:19:59.227Z,2.08
2022-12-03T16:25:03.357Z,2.10
2022-12-03T16:30:09.722Z,2.17
2022-12-03T16:35:13.182Z,2.07
2022-12-03T16:40:16.693Z,2.11
2022-12-03T16:45:51.095Z,2.13
2022-12-03T16:50:55.239Z,2.00
2022-12-03T16:55:58.669Z,2.00
2022-12-03T17:01:03.489Z,2.07
2022-12-03T17:06:07.407Z,2.05
2022-12-03T17:11:10.874Z,2.05
2022-12-03T17:16:15.759Z,1.95
2022-12-03T17:21:19.296Z,1.95
2022-12-03T17:26:22.721Z,1.89
2022-12-03T17:31:28.171Z,1.82
2022-12-03T17:36:31.828Z,1.81
2022-12-03T17:41:35.312Z,1.79
2022-12-03T17:46:40.307Z,1.78
2022-12-03T17:51:43.702Z,1.77
2022-12-03T17:56:47.121Z,1.62
2022-12-03T18:01:52.337Z,1.61
2022-12-03T18:07:00.593Z,1.57
2022-12-03T18:12:05.977Z,1.60
2022-12-03T18:17:11.242Z,1.68
2022-12-03T18:22:14.775Z,1.59
2022-12-03T18:27:18.246Z,1.68
2022-12-03T18:32:30.405Z,1.67
2022-12-03T18:37:34.380Z,1.64
2022-12-03T18:42:37.858Z,1.66
2022-12-03T18:47:43.149Z,1.62
2022-12-03T18:52:48.967Z,1.55
2022-12-03T18:57:52.426Z,1.53
2022-12-03T19:03:04.857Z,1.53
2022-12-03T19:08:14.729Z,1.45
2022-12-03T19:13:20.710Z,1.55
2022-12-03T19:18:25.951Z,1.40
2022-12-03T19:23:29.345Z,1.36
2022-12-03T19:28:32.757Z,1.46
2022-12-03T19:33:37.555Z,1.42
2022-12-03T19:38:42.452Z,1.42
2022-12-03T19:43:49.925Z,1.43
2022-12-03T19:48:56.361Z,1.46
2022-12-03T19:53:59.815Z,1.47
2022-12-03T19:59:05.165Z,1.47
2022-12-03T20:04:12.129Z,1.44
2022-12-03T20:09:17.899Z,1.49
2022-12-03T20:14:41.414Z,1.50
2022-12-03T20:19:46.254Z,1.54
2022-12-03T20:24:49.661Z,1.52
2022-12-03T20:29:53.361Z,1.52
2022-12-03T20:34:58.351Z,1.43
2022-12-03T20:40:01.747Z,1.46
2022-12-03T20:45:06.935Z,1.49
2022-12-03T20:50:11.929Z,1.28
2022-12-03T20:55:15.315Z,1.37
2022-12-03T21:00:19.246Z,1.38
2022-12-03T21:05:24.313Z,1.53
2022-12-03T21:10:37.118Z,1.36
2022-12-03T21:15:40.469Z,1.36
2022-12-03T21:20:47.044Z,1.35
2022-12-03T21:25:50.454Z,1.33
2022-12-03T21:30:53.958Z,1.30
2022-12-03T21:35:59.257Z,1.37
2022-12-03T21:41:03.132Z,1.46
2022-12-03T21:47:11.157Z,1.30
2022-12-03T21:51:32.531Z,1.30
2022-12-03T21:56:35.913Z,1.09
2022-12-03T22:01:43.998Z,1.04
2022-12-03T22:06:51.689Z,0.95
2022-12-03T22:11:57.026Z,0.91
2022-12-03T22:17:00.575Z,0.93
2022-12-03T22:22:05.350Z,0.92
2022-12-03T22:27:09.242Z,0.94
2022-12-03T22:32:12.613Z,1.03
2022-12-03T22:37:17.549Z,0.99
2022-12-03T22:42:21.261Z,0.96
2022-12-03T22:47:24.774Z,0.96
2022-12-03T22:52:29.583Z,0.95
2022-12-03T22:57:32.983Z,0.87
2022-12-03T23:02:36.375Z,1.08
2022-12-03T23:07:41.566Z,1.02
2022-12-03T23:12:45.309Z,1.05
2022-12-03T23:17:48.706Z,1.04
2022-12-03T23:22:54.127Z,1.13
2022-12-03T23:27:57.515Z,1.09
2022-12-03T23:33:00.945Z,1.09
2022-12-03T23:38:05.792Z,1.10
2022-12-03T23:43:09.303Z,1.13
2022-12-03T23:48:14.084Z,1.14
2022-12-03T23:53:18.888Z,1.15
2022-12-03T23:58:22.284Z,1.20
